Latest Weather Observations for Kingscote

IDS60801

Issued at 12:41 am CST Friday 29 May 2020 (issued every 10 minutes, with the page automatically refreshed every 10 minutes)

About weather observations | Map of weather stations | Latest weather observations for SA | Other Formats
Station Details ID: 022841 Name: KINGSCOTE AERO Lat: -35.71 Lon: 137.52 Height: 6.23 m
Data from the previous 72 hours. | See also: Recent months at Kingscote
Date/Time
CST
Temp
°C
App
Temp
°C
Dew
Point
°C
Rel
Hum
%
Delta-T
°C
Wind Press
QNH
hPa
Press
MSL
hPa
Rain since
9am
mm
Dir  Spd
km/h
Gust
km/h
Spd
kts
Gust
kts
29/12:30am 13.3 11.8 10.5 83 1.5 N 9 13 5 7 1023.5 1023.5 0.2
29/12:00am 13.4 11.2 10.8 84 1.4 NNW 13 17 7 9 1023.5 1023.5 0.2
 
Date/Time
CST
Temp
°C
App
Temp
°C
Dew
Point
°C
Rel
Hum
%
Delta-T
°C
Wind Press
QNH
hPa
Press
MSL
hPa
Rain since
9am
mm
Dir  Spd
km/h
Gust
km/h
Spd
kts
Gust
kts
28/11:30pm 13.3 11.7 11.4 88 1.0 NNW 11 13 6 7 1023.5 1023.5 0.2
28/11:00pm 13.1 11.1 11.5 90 0.8 N 13 17 7 9 1023.6 1023.6 0.2
28/10:30pm 10.9 11.0 10.3 96 0.3 CALM 0 0 0 0 1024.0 1024.0 0.2
28/10:00pm 10.5 10.5 9.7 95 0.4 CALM 0 0 0 0 1024.0 1024.0 0.2
28/09:30pm 10.4 10.3 9.6 95 0.4 CALM 0 0 0 0 1024.2 1024.2 0.2
28/09:00pm 9.8 9.6 8.9 94 0.4 CALM 0 0 0 0 1024.1 1024.1 0.2
28/08:30pm 11.1 11.2 10.3 95 0.4 CALM 0 0 0 0 1023.9 1023.9 0.2
28/08:13pm 10.4 10.3 9.3 93 0.5 CALM 0 0 0 0 1023.7 1023.7 0.2
28/08:00pm 10.4 10.3 9.3 93 0.5 CALM 0 0 0 0 1023.5 1023.5 0.2
28/07:44pm 11.1 11.2 10.0 93 0.6 CALM 0 0 0 0 1023.5 1023.5 0.2
28/07:30pm 11.1 11.1 9.7 91 0.7 CALM 0 0 0 0 1023.4 1023.4 0.2
28/07:00pm 12.7 13.1 11.3 91 0.7 CALM 0 0 0 0 1023.2 1023.2 0.2
28/06:30pm 13.2 13.8 11.8 91 0.7 CALM 0 0 0 0 1023.2 1023.2 0.2
28/06:00pm 13.3 12.5 11.7 90 0.8 N 7 11 4 6 1023.0 1023.0 0.2
28/05:30pm 13.4 12.6 11.6 89 1.0 NNW 7 9 4 5 1023.1 1023.1 0.2
28/05:22pm 13.4 12.3 11.8 90 0.9 NNW 9 11 5 6 1023.1 1023.1 0.2
28/05:01pm 13.6 9.9 11.5 87 1.1 W 22 33 12 18 1023.0 1023.0 0.0
28/05:00pm 13.5 9.3 11.2 86 1.2 W 24 33 13 18 1023.0 1023.0 0.0
28/04:30pm 15.0 13.4 11.4 79 1.9 NW 11 15 6 8 1022.4 1022.4 0.0
28/04:00pm 15.8 12.9 11.0 73 2.6 NNW 17 24 9 13 1022.2 1022.2 0.0
28/03:30pm 15.7 12.3 10.7 72 2.6 NW 19 26 10 14 1022.0 1022.0 0.0
28/03:00pm 15.9 12.4 10.2 69 3.0 NW 19 24 10 13 1021.7 1021.7 0.0
28/02:30pm 16.4 12.4 10.3 67 3.2 NW 22 32 12 17 1021.6 1021.6 0.0
28/02:00pm 16.6 13.6 10.7 68 3.1 NW 17 28 9 15 1021.4 1021.4 0.0
28/01:30pm 17.8 14.9 11.1 65 3.6 NNW 17 24 9 13 1021.5 1021.5 0.0
28/01:00pm 17.4 14.1 11.0 66 3.4 NW 19 24 10 13 1021.9 1021.9 0.0
28/12:30pm 16.9 13.5 11.2 69 3.1 NW 20 28 11 15 1022.2 1022.2 0.0
28/12:00pm 16.0 12.5 10.1 68 3.1 WNW 19 28 10 15 1022.5 1022.5 0.0
28/11:30am 17.0 14.0 10.6 66 3.4 NW 17 22 9 12 1022.6 1022.6 0.0
28/11:00am 15.7 14.6 11.9 78 2.1 W 9 19 5 10 1022.9 1022.9 0.0
28/10:30am 14.4 13.9 12.1 86 1.2 W 6 11 3 6 1022.9 1022.9 0.0
28/10:00am 12.5 11.8 11.9 96 0.3 WSW 7 11 4 6 1023.0 1023.0 0.0
28/09:30am 11.3 11.6 10.8 97 0.3 CALM 0 0 0 0 1022.8 1022.8 0.0
28/09:00am 9.9 9.8 9.4 97 0.2 CALM 0 0 0 0 1022.6 1022.6 0.4
28/08:30am 9.5 9.0 9.2 98 0.1 W 2 6 1 3 1022.2 1022.2 0.4
28/08:22am 8.5 6.8 8.2 98 0.1 WSW 7 9 4 5 1022.3 1022.3 0.4
28/08:14am 8.1 6.3 7.8 98 0.1 WSW 7 9 4 5 1022.3 1022.3 0.2
28/08:00am 6.5 4.5 6.1 97 0.2 S 6 9 3 5 1022.0 1022.0 0.2
28/07:48am 5.9 3.6 5.5 97 0.2 SW 7 15 4 8 1021.8 1021.8 0.2
28/07:45am 5.9 3.2 5.5 97 0.2 WSW 9 15 5 8 1021.8 1021.8 0.2
28/07:30am 6.0 5.0 5.6 97 0.2 CALM 0 0 0 0 1021.5 1021.5 0.2
28/07:00am 6.4 5.5 6.0 97 0.2 CALM 0 0 0 0 1021.2 1021.2 0.2
28/06:50am 6.2 5.2 5.8 97 0.2 CALM 0 0 0 0 1021.1 1021.1 0.2
28/06:30am 5.9 4.9 5.5 97 0.2 CALM 0 0 0 0 1020.9 1020.9 0.2
28/06:23am 5.2 4.0 4.8 97 0.2 CALM 0 0 0 0 1020.8 1020.8 0.2
28/06:00am 5.5 4.4 4.9 96 0.3 CALM 0 0 0 0 1020.5 1020.5 0.2
28/05:58am 5.5 4.4 4.9 96 0.3 CALM 0 0 0 0 1020.5 1020.5 0.2
28/05:36am 6.5 5.6 5.9 96 0.3 CALM 0 0 0 0 1020.3 1020.3 0.2
28/05:30am 6.5 5.6 5.9 96 0.3 CALM 0 0 0 0 1020.3 1020.3 0.2
28/05:24am 6.8 6.0 6.4 97 0.2 CALM 0 0 0 0 1020.4 1020.4 0.2
28/05:01am 6.8 5.9 6.2 96 0.3 CALM 0 0 0 0 1020.5 1020.5 0.2
28/05:00am 6.8 5.9 6.2 96 0.3 CALM 0 0 0 0 1020.5 1020.5 0.2
28/04:30am 7.0 6.2 6.6 97 0.2 CALM 0 0 0 0 1020.6 1020.6 0.2
28/04:22am 7.1 6.3 6.7 97 0.2 CALM 0 0 0 0 1020.5 1020.5 0.2
28/04:06am 7.1 6.3 6.7 97 0.2 CALM 0 0 0 0 1020.5 1020.5 0.2
28/04:00am 6.9 6.1 6.5 97 0.2 CALM 0 0 0 0 1020.5 1020.5 0.2
28/03:30am 7.1 6.3 6.7 97 0.2 CALM 0 0 0 0 1020.5 1020.5 0.2
28/03:13am 6.5 5.6 5.9 96 0.3 CALM 0 0 0 0 1020.5 1020.5 0.2
28/03:00am 6.9 6.1 6.3 96 0.3 CALM 0 0 0 0 1020.4 1020.4 0.2
28/02:30am 8.0 7.4 7.4 96 0.3 CALM 0 0 0 0 1020.2 1020.2 0.2
28/02:00am 8.4 7.9 7.8 96 0.3 CALM 0 0 0 0 1020.3 1020.3 0.2
28/01:30am 8.4 7.9 7.8 96 0.3 CALM 0 0 0 0 1020.2 1020.2 0.2
28/01:00am 8.8 8.3 8.0 95 0.4 CALM 0 0 0 0 1020.3 1020.3 0.2
28/12:46am 9.5 9.3 8.9 96 0.3 CALM 0 0 0 0 1020.2 1020.2 0.2
28/12:30am 9.6 9.4 9.0 96 0.3 CALM 0 4 0 2 1020.3 1020.3 0.2
28/12:00am 9.6 8.1 9.0 96 0.3 NNW 7 7 4 4 1020.3 1020.3 0.2
 
Date/Time
CST
Temp
°C
App
Temp
°C
Dew
Point
°C
Rel
Hum
%
Delta-T
°C
Wind Press
QNH
hPa
Press
MSL
hPa
Rain since
9am
mm
Dir  Spd
km/h
Gust
km/h
Spd
kts
Gust
kts
27/11:30pm 9.9 8.6 9.3 96 0.3 WNW 6 9 3 5 1020.2 1020.2 0.2
27/11:00pm 8.4 6.7 7.6 95 0.4 SW 6 7 3 4 1020.2 1020.2 0.0
27/10:50pm 8.7 7.1 7.9 95 0.4 WSW 6 7 3 4 1020.1 1020.1 0.0
27/10:44pm 8.5 6.8 7.7 95 0.4 WSW 6 7 3 4 1020.1 1020.1 0.0
27/10:30pm 8.5 6.8 7.6 94 0.4 NNW 6 7 3 4 1020.0 1020.0 0.0
27/10:18pm 9.4 7.9 8.5 94 0.4 NNW 6 9 3 5 1019.9 1019.9 0.0
27/10:00pm 9.8 8.2 8.9 94 0.4 NNW 7 9 4 5 1020.1 1020.1 0.0
27/09:30pm 10.2 10.1 9.3 94 0.4 CALM 0 0 0 0 1020.0 1020.0 0.0
27/09:13pm 10.5 9.3 9.6 94 0.5 SW 6 9 3 5 1019.9 1019.9 0.0
27/09:00pm 10.8 8.7 9.9 94 0.5 W 11 15 6 8 1020.1 1020.1 0.0
27/08:59pm 10.7 8.6 9.8 94 0.5 W 11 15 6 8 1020.1 1020.1 0.0
27/08:30pm 9.5 9.1 8.1 91 0.7 CALM 0 0 0 0 1019.8 1019.8 0.0
27/08:00pm 10.2 9.9 8.5 89 0.8 CALM 0 0 0 0 1019.6 1019.6 0.0
27/07:30pm 10.6 10.2 8.4 86 1.1 CALM 0 0 0 0 1019.4 1019.4 0.0
27/07:00pm 11.7 11.5 9.1 84 1.3 CALM 0 0 0 0 1019.3 1019.3 0.0
27/06:30pm 12.1 10.7 9.5 84 1.3 S 7 9 4 5 1018.9 1018.9 0.0
27/06:00pm 12.6 10.8 9.6 82 1.5 WNW 9 13 5 7 1018.7 1018.7 0.0
27/05:30pm 13.7 11.2 9.6 76 2.1 WNW 13 15 7 8 1018.2 1018.2 0.0
27/05:00pm 15.1 11.9 9.9 71 2.7 WNW 17 20 9 11 1018.0 1018.0 0.0
27/04:30pm 16.3 13.3 10.8 70 2.9 W 17 20 9 11 1017.7 1017.7 0.0
27/04:00pm 16.8 13.2 10.6 67 3.3 WNW 20 28 11 15 1017.6 1017.6 0.0
27/03:30pm 17.4 13.9 11.0 66 3.4 WNW 20 26 11 14 1017.4 1017.4 0.0
27/03:00pm 17.7 13.7 10.6 63 3.8 WNW 22 28 12 15 1017.1 1017.1 0.0
27/02:30pm 18.0 14.2 11.3 65 3.6 NW 22 30 12 16 1017.0 1017.0 0.0
27/02:00pm 18.2 14.4 11.3 64 3.8 NW 22 28 12 15 1017.0 1017.0 0.0
27/01:30pm 18.2 17.1 12.0 67 3.4 WNW 9 17 5 9 1017.1 1017.1 0.0
27/01:00pm 17.6 16.7 12.7 73 2.7 W 9 19 5 10 1017.3 1017.3 0.0
27/12:30pm 15.9 14.3 11.7 76 2.3 W 11 20 6 11 1017.6 1017.6 0.0
27/12:00pm 16.7 14.8 11.8 73 2.7 NW 13 19 7 10 1017.8 1017.8 0.0
27/11:30am 17.0 14.9 11.3 69 3.1 WNW 13 19 7 10 1018.0 1018.0 0.0
27/11:00am 17.5 16.0 13.2 76 2.4 W 13 15 7 8 1018.3 1018.3 0.0
27/10:30am 16.0 13.6 12.6 80 1.9 WNW 17 20 9 11 1018.5 1018.5 0.0
27/10:00am 14.8 14.1 13.3 91 0.8 NNW 9 11 5 6 1018.4 1018.4 0.0
27/09:30am 14.5 13.9 13.5 94 0.6 NNW 9 13 5 7 1018.2 1018.2 0.0
27/09:00am 14.4 14.1 13.4 94 0.6 W 7 9 4 5 1018.1 1018.1 6.6
27/08:43am 14.0 13.6 13.1 94 0.5 WSW 7 9 4 5 1018.0 1018.0 6.6
27/08:40am 13.9 13.5 13.0 94 0.5 SW 7 11 4 6 1017.9 1017.9 6.6
27/08:30am 13.9 13.1 13.0 94 0.5 WNW 9 15 5 8 1017.8 1017.8 6.6
27/08:26am 13.9 13.1 13.0 94 0.5 NW 9 15 5 8 1017.7 1017.7 6.4
27/08:16am 13.9 13.4 12.8 93 0.6 N 7 11 4 6 1017.7 1017.7 2.6
27/08:00am 13.8 13.0 12.9 94 0.5 NNW 9 13 5 7 1017.5 1017.5 1.8
27/07:43am 13.6 12.7 12.7 94 0.5 NNW 9 13 5 7 1017.5 1017.5 1.6
27/07:30am 13.7 12.0 12.6 93 0.6 NNW 13 17 7 9 1017.2 1017.2 1.6
27/07:28am 13.7 12.0 12.6 93 0.6 NNW 13 17 7 9 1017.2 1017.2 1.6
27/07:11am 13.5 11.3 12.2 92 0.7 NW 15 22 8 12 1016.9 1016.9 1.0
27/07:00am 13.6 11.9 12.5 93 0.6 NNW 13 17 7 9 1016.9 1016.9 0.8
27/06:59am 13.7 12.0 12.6 93 0.6 NNW 13 17 7 9 1016.9 1016.9 0.6
27/06:30am 13.5 12.1 12.1 91 0.8 NNW 11 17 6 9 1016.5 1016.5 0.6
27/06:00am 13.9 11.8 12.3 90 0.9 NNW 15 20 8 11 1016.3 1016.3 0.6
27/05:30am 13.9 12.0 11.8 87 1.1 N 13 20 7 11 1016.1 1016.1 0.4
27/05:00am 14.0 11.9 11.3 84 1.4 N 13 19 7 10 1016.1 1016.1 0.4
27/04:30am 14.3 11.9 11.5 83 1.5 NNW 15 26 8 14 1016.0 1016.0 0.4
27/04:00am 14.2 11.8 11.4 83 1.5 NNW 15 20 8 11 1015.9 1015.9 0.4
27/03:30am 14.0 11.9 11.2 83 1.5 N 13 19 7 10 1015.8 1015.8 0.4
27/03:00am 13.6 11.7 10.6 82 1.6 N 11 17 6 9 1015.8 1015.8 0.4
27/02:30am 13.4 11.4 10.2 81 1.7 N 11 17 6 9 1015.7 1015.7 0.4
27/02:00am 13.7 10.9 10.1 79 1.9 NNW 15 19 8 10 1015.7 1015.7 0.4
27/01:30am 14.0 10.5 10.2 78 2.0 NNW 19 26 10 14 1015.7 1015.7 0.4
27/01:00am 14.0 10.3 10.0 77 2.1 NNW 20 32 11 17 1015.6 1015.6 0.4
27/12:30am 14.0 10.5 10.2 78 2.0 NNW 19 32 10 17 1015.8 1015.8 0.4
27/12:00am 14.2 10.5 10.0 76 2.2 N 20 35 11 19 1016.0 1016.0 0.4
 
Date/Time
CST
Temp
°C
App
Temp
°C
Dew
Point
°C
Rel
Hum
%
Delta-T
°C
Wind Press
QNH
hPa
Press
MSL
hPa
Rain since
9am
mm
Dir  Spd
km/h
Gust
km/h
Spd
kts
Gust
kts
26/11:30pm 14.4 10.6 9.8 74 2.4 N 20 32 11 17 1016.1 1016.1 0.4
26/11:00pm 14.2 10.5 9.6 74 2.4 N 19 28 10 15 1016.2 1016.2 0.4
26/10:30pm 14.1 10.3 9.7 75 2.3 NNW 20 35 11 19 1016.4 1016.4 0.4
26/10:00pm 14.1 10.4 9.3 73 2.4 N 19 30 10 16 1016.4 1016.4 0.4
26/09:30pm 13.9 10.2 9.5 75 2.2 N 19 30 10 16 1016.4 1016.4 0.4
26/09:00pm 13.7 10.1 9.7 77 2.0 N 19 30 10 16 1016.6 1016.6 0.4
26/08:30pm 13.6 10.4 10.0 79 1.9 N 17 24 9 13 1016.5 1016.5 0.4
26/08:00pm 13.5 9.9 9.9 79 1.9 N 19 28 10 15 1016.5 1016.5 0.4
26/07:30pm 13.2 10.4 10.0 81 1.6 N 15 24 8 13 1016.6 1016.6 0.4
26/07:00pm 13.0 10.2 10.0 82 1.5 N 15 20 8 11 1016.3 1016.3 0.4
26/06:30pm 13.6 9.4 9.6 77 2.0 N 22 33 12 18 1015.8 1015.8 0.0
26/06:00pm 14.3 9.5 8.7 69 2.8 N 24 35 13 19 1015.4 1015.4 0.0
26/05:30pm 14.3 9.7 8.3 67 3.0 N 22 35 12 19 1015.0 1015.0 0.0
26/05:00pm 14.4 8.9 7.5 63 3.4 N 26 41 14 22 1015.0 1015.0 0.0
26/04:30pm 14.3 8.8 7.4 63 3.4 N 26 44 14 24 1014.7 1014.7 0.0
26/04:00pm 14.7 9.9 7.5 62 3.6 N 22 35 12 19 1014.8 1014.8 0.0
26/03:30pm 14.6 8.9 6.7 59 3.8 N 26 33 14 18 1014.9 1014.9 0.0
26/03:00pm 14.9 10.1 7.2 60 3.8 N 22 37 12 20 1015.3 1015.3 0.0
26/02:30pm 14.9 9.6 7.0 59 3.9 N 24 37 13 20 1015.2 1015.2 0.0
26/02:00pm 15.5 9.3 6.2 54 4.5 N 28 37 15 20 1015.3 1015.3 0.0
26/01:55pm 16.7 10.8 7.6 55 4.6 N 28 50 15 27 1015.2 1015.2 0.0
26/01:30pm 15.6 10.0 7.1 57 4.2 N 26 44 14 24 1015.3 1015.3 0.0
26/01:00pm 14.0 10.0 9.0 72 2.5 N 20 30 11 16 1015.7 1015.7 0.0
26/12:30pm 14.2 8.7 7.7 65 3.2 N 26 39 14 21 1015.8 1015.8 0.0
26/12:00pm 15.2 8.6 7.7 61 3.7 N 32 50 17 27 1016.4 1016.4 0.0
26/11:45am 14.2 8.3 7.3 63 3.4 N 28 46 15 25 1016.6 1016.6 0.0
26/11:30am 14.1 7.8 7.2 63 3.4 N 30 44 16 24 1017.0 1017.0 0.0
26/11:00am 14.2 9.2 7.9 66 3.1 N 24 39 13 21 1017.6 1017.6 0.0
26/10:30am 13.8 8.0 8.0 68 2.9 N 28 43 15 23 1018.1 1018.1 0.0
26/10:00am 14.0 7.8 7.8 66 3.1 N 30 46 16 25 1018.7 1018.7 0.0
26/09:30am 13.4 6.9 6.5 63 3.3 N 30 44 16 24 1018.5 1018.5 0.0
26/09:00am 13.0 7.3 6.6 65 3.1 N 26 35 14 19 1018.6 1018.6 0.0
26/08:30am 12.8 7.4 6.4 65 3.0 N 24 35 13 19 1018.5 1018.5 0.0
26/08:00am 12.6 7.3 6.6 67 2.9 N 24 35 13 19 1018.6 1018.6 0.0
26/07:30am 11.8 7.3 7.1 73 2.2 N 20 30 11 16 1018.5 1018.5 0.0
26/07:00am 11.7 7.2 6.8 72 2.3 NNE 20 30 11 16 1018.3 1018.3 0.0
26/06:30am 11.5 6.5 6.6 72 2.3 NNE 22 33 12 18 1018.6 1018.6 0.0
26/06:00am 11.9 7.0 7.0 72 2.3 NNE 22 35 12 19 1018.5 1018.5 0.0
26/05:30am 11.9 7.4 6.8 71 2.4 NNE 20 28 11 15 1018.4 1018.4 0.0
26/05:00am 11.5 6.7 5.8 68 2.6 NNE 20 30 11 16 1018.6 1018.6 0.0
26/04:30am 11.7 7.2 6.2 69 2.6 NNE 19 30 10 16 1018.7 1018.7 0.0
26/04:00am 11.6 7.1 6.1 69 2.6 NNE 19 30 10 16 1019.0 1019.0 0.0
26/03:30am 11.4 7.0 6.5 72 2.3 N 19 22 10 12 1019.3 1019.3 0.0
26/03:00am 11.5 6.9 6.4 71 2.4 NNE 20 26 11 14 1019.3 1019.3 0.0
26/02:30am 11.7 6.6 6.0 68 2.7 NNE 22 35 12 19 1019.4 1019.4 0.0
26/02:00am 11.8 6.9 6.9 72 2.3 N 22 30 12 16 1019.5 1019.5 0.0
26/01:30am 11.8 7.4 7.3 74 2.2 N 20 32 11 17 1019.9 1019.9 0.0
26/01:00am 11.6 7.7 7.1 74 2.2 NNE 17 24 9 13 1020.2 1020.2 0.0

Other formats

Comma delimited format used in spreadsheet applications
http://www.bom.gov.au/fwo/IDS60801/IDS60801.95807.axf

JavaScript Object Notation format (JSON) in row-major order
http://www.bom.gov.au/fwo/IDS60801/IDS60801.95807.json

Data quality

Most of these data are generated automatically and are frequently updated. Quality checks on data are not normally performed. It is possible for incorrect values to appear. Refer to information at About Latest Weather Observations and please check the disclaimer before using these data.